Time;durP1;ratioP1;P1;durP2;ratioP2;P2;SDS_P1;SDS_P2;PMS_P1;PMS_P2;Temp;Humidity;BMP_temperature;BMP_pressure;BME280_temperature;BME280_humidity;BME280_pressure;Samples;Min_cycle;Max_cycle;Signal;HPM_P1;HPM_P2
2022/05/13 00:00:48;;;;;;;;;;;;;;;;;;4995671;28;19909;-31
2022/05/13 00:03:14;;;;;;;;;;;;;;;;;;4995320;28;20354;-30
2022/05/13 00:05:40;;;;;;;;;;;;;;;;;;4996127;28;19906;-30
2022/05/13 00:08:07;;;;;;;;;;;;;;;;;;4995760;28;20016;-31
2022/05/13 00:10:33;;;;;;;;;;;;;;;;;;4995549;28;20373;-30
2022/05/13 00:12:59;;;;;;;;;;;;;;;;;;4995432;28;19937;-31
2022/05/13 00:15:25;;;;;;;;;;;;;;;;;;4995474;28;20000;-30
2022/05/13 00:17:53;;;;;;;;;;;;;;;;;;4995455;28;19909;-31
2022/05/13 00:20:19;;;;;;;;;;;;;;;;;;4995362;28;19960;-31
2022/05/13 00:22:45;;;;;;;;;;;;;;;;;;4995352;28;19916;-30
2022/05/13 00:25:11;;;;;;;;;;;;;;;;;;4995664;28;19905;-31
2022/05/13 00:27:37;;;;;;;;;;;;;;;;;;4998509;28;20283;-31
2022/05/13 00:30:03;;;;;;;;;;;;;;;;;;4999540;28;19938;-30
2022/05/13 00:32:29;;;;;;;;;;;;;;;;;;4999474;28;19913;-31
2022/05/13 00:34:56;;;;;;;;;;;;;;;;;;4999374;28;19924;-31
2022/05/13 00:37:22;;;;;;;;;;;;;;;;;;4999393;28;19910;-30
2022/05/13 00:39:48;;;;;;;;;;;;;;;;;;4999369;28;19917;-31
2022/05/13 00:42:17;;;;;;;;;;;;;;;;;;4999247;28;19909;-31
2022/05/13 00:44:43;;;;;;;;;;;;;;;;;;4999591;28;19910;-30
2022/05/13 00:47:11;;;;;;;;;;;;;;;;;;4999545;28;19920;-30
2022/05/13 00:49:37;;;;;;;;;;;;;;;;;;4998891;28;19916;-31
2022/05/13 00:52:03;;;;;;;;;;;;;;;;;;4999049;28;19910;-31
2022/05/13 00:54:29;;;;;;;;;;;;;;;;;;4999371;28;19916;-31
2022/05/13 00:56:55;;;;;;;;;;;;;;;;;;4998957;28;20350;-31
2022/05/13 00:59:21;;;;;;;;;;;;;;;;;;4999282;28;19905;-31
2022/05/13 01:01:48;;;;;;;;;;;;;;;;;;4998629;28;19912;-31
2022/05/13 01:04:14;;;;;;;;;;;;;;;;;;4998386;28;19929;-31
2022/05/13 01:06:41;;;;;;;;;;;;;;;;;;4998609;28;19905;-31
2022/05/13 01:09:07;;;;;;;;;;;;;;;;;;4998477;28;19910;-31
2022/05/13 01:11:33;;;;;;;;;;;;;;;;;;4998524;28;19906;-31
2022/05/13 01:13:59;;;;;;;;;;;;;;;;;;4998323;28;20362;-30
2022/05/13 01:16:25;;;;;;;;;;;;;;;;;;4998446;28;19910;-31
2022/05/13 01:18:51;;;;;;;;;;;;;;;;;;4998441;28;19917;-31
2022/05/13 01:21:17;;;;;;;;;;;;;;;;;;4998635;28;20358;-31
2022/05/13 01:23:43;;;;;;;;;;;;;;;;;;4998234;28;19917;-31
2022/05/13 01:26:09;;;;;;;;;;;;;;;;;;4998286;28;19913;-31
2022/05/13 01:28:35;;;;;;;;;;;;;;;;;;4998267;28;20377;-31
2022/05/13 01:31:01;;;;;;;;;;;;;;;;;;4998702;28;19935;-31
2022/05/13 01:33:27;;;;;;;;;;;;;;;;;;4998315;28;19906;-30
2022/05/13 01:35:53;;;;;;;;;;;;;;;;;;4998009;28;19913;-31
2022/05/13 01:38:19;;;;;;;;;;;;;;;;;;4997058;28;19921;-31
2022/05/13 01:40:45;;;;;;;;;;;;;;;;;;4998527;28;19949;-31
2022/05/13 01:43:11;;;;;;;;;;;;;;;;;;4997948;28;20305;-31
2022/05/13 01:45:37;;;;;;;;;;;;;;;;;;4997893;28;19906;-30
2022/05/13 01:48:03;;;;;;;;;;;;;;;;;;4997835;28;19910;-31
2022/05/13 01:50:29;;;;;;;;;;;;;;;;;;4997848;28;20305;-31
2022/05/13 01:52:55;;;;;;;;;;;;;;;;;;4997676;28;19917;-31
2022/05/13 01:55:21;;;;;;;;;;;;;;;;;;4997683;28;20335;-31
2022/05/13 01:57:47;;;;;;;;;;;;;;;;;;4997665;28;20278;-30
2022/05/13 02:00:13;;;;;;;;;;;;;;;;;;4997863;28;19912;-30
2022/05/13 02:05:25;;;;;;;;;;;;;;;;;;4958831;29;19925;-31
2022/05/13 02:07:51;;;;;;;;;;;;;;;;;;4958774;29;19957;-31
2022/05/13 02:10:17;;;;;;;;;;;;;;;;;;4958719;29;19949;-31
2022/05/13 02:12:42;;;;;;;;;;;;;;;;;;4959107;28;19920;-31
2022/05/13 02:15:08;;;;;;;;;;;;;;;;;;4959072;29;19910;-31
2022/05/13 02:17:34;;;;;;;;;;;;;;;;;;4958843;29;19937;-31
2022/05/13 02:20:00;;;;;;;;;;;;;;;;;;4958769;29;19917;-30
2022/05/13 02:22:26;;;;;;;;;;;;;;;;;;4958704;28;20375;-31
2022/05/13 02:24:52;;;;;;;;;;;;;;;;;;4958428;29;19917;-31
2022/05/13 02:27:18;;;;;;;;;;;;;;;;;;4958405;29;19918;-31
2022/05/13 02:29:44;;;;;;;;;;;;;;;;;;4958326;29;20332;-30
2022/05/13 02:32:10;;;;;;;;;;;;;;;;;;4958209;28;19910;-31
2022/05/13 02:34:36;;;;;;;;;;;;;;;;;;4958825;29;20000;-31
2022/05/13 02:37:02;;;;;;;;;;;;;;;;;;4958699;29;19922;-31
2022/05/13 02:39:28;;;;;;;;;;;;;;;;;;4958156;29;19910;-31
2022/05/13 02:41:54;;;;;;;;;;;;;;;;;;4957065;28;19911;-31
2022/05/13 02:44:21;;;;;;;;;;;;;;;;;;4958307;29;19907;-30
2022/05/13 02:46:47;;;;;;;;;;;;;;;;;;4958037;29;19911;-31
2022/05/13 02:49:13;;;;;;;;;;;;;;;;;;4957781;28;19969;-31
2022/05/13 02:51:40;;;;;;;;;;;;;;;;;;4957922;29;19914;-31
2022/05/13 02:54:07;;;;;;;;;;;;;;;;;;4957916;29;19906;-30
2022/05/13 02:56:33;;;;;;;;;;;;;;;;;;4957776;29;19941;-31
2022/05/13 02:58:59;;;;;;;;;;;;;;;;;;4958076;29;20286;-31
2022/05/13 03:01:25;;;;;;;;;;;;;;;;;;4957847;29;19906;-31
2022/05/13 03:03:51;;;;;;;;;;;;;;;;;;4975187;28;20365;-31
2022/05/13 03:06:17;;;;;;;;;;;;;;;;;;4996372;28;19909;-31
2022/05/13 03:08:42;;;;;;;;;;;;;;;;;;4996910;28;19992;-31
2022/05/13 03:11:09;;;;;;;;;;;;;;;;;;4996219;28;19968;-31
2022/05/13 03:13:35;;;;;;;;;;;;;;;;;;4996308;28;19910;-31
2022/05/13 03:16:01;;;;;;;;;;;;;;;;;;4996417;28;19909;-31
2022/05/13 03:18:27;;;;;;;;;;;;;;;;;;4996712;28;19945;-30
2022/05/13 03:20:53;;;;;;;;;;;;;;;;;;4996188;28;19941;-31
2022/05/13 03:23:19;;;;;;;;;;;;;;;;;;4996033;28;19976;-30
2022/05/13 03:25:45;;;;;;;;;;;;;;;;;;4996373;28;20009;-31
2022/05/13 03:28:11;;;;;;;;;;;;;;;;;;4995995;28;20033;-30
2022/05/13 03:30:37;;;;;;;;;;;;;;;;;;4996255;28;19910;-31
2022/05/13 03:33:03;;;;;;;;;;;;;;;;;;4996156;28;20239;-31
2022/05/13 03:35:29;;;;;;;;;;;;;;;;;;4996397;28;19929;-31
2022/05/13 03:37:55;;;;;;;;;;;;;;;;;;4996779;28;19955;-30
2022/05/13 03:40:21;;;;;;;;;;;;;;;;;;4995886;28;19917;-32
2022/05/13 03:42:47;;;;;;;;;;;;;;;;;;4995627;28;19910;-31
2022/05/13 03:45:13;;;;;;;;;;;;;;;;;;4995745;28;19906;-30
2022/05/13 03:47:39;;;;;;;;;;;;;;;;;;4995924;28;19925;-31
2022/05/13 03:50:05;;;;;;;;;;;;;;;;;;4996286;28;20315;-31
2022/05/13 03:52:31;;;;;;;;;;;;;;;;;;4978494;28;19909;-31
2022/05/13 03:54:57;;;;;;;;;;;;;;;;;;4995612;28;19913;-31
2022/05/13 03:57:23;;;;;;;;;;;;;;;;;;4995544;28;19909;-31
2022/05/13 03:59:49;;;;;;;;;;;;;;;;;;4995856;28;19909;-31
2022/05/13 04:02:15;;;;;;;;;;;;;;;;;;4995000;28;19975;-31
2022/05/13 04:10:10;;;;;;;;;;;;;;;;;;4995313;28;19971;-31
2022/05/13 04:18:05;;;;;;;;;;;;;;;;;;4995716;28;20250;-31
2022/05/13 04:20:32;;;;;;;;;;;;;;;;;;4996054;28;19906;-31
2022/05/13 04:22:58;;;;;;;;;;;;;;;;;;4995220;28;19914;-31
2022/05/13 04:25:24;;;;;;;;;;;;;;;;;;4995924;28;19909;-31
2022/05/13 04:27:50;;;;;;;;;;;;;;;;;;4995584;28;20297;-31
2022/05/13 04:30:17;;;;;;;;;;;;;;;;;;4995676;28;19912;-31
2022/05/13 04:32:43;;;;;;;;;;;;;;;;;;4995737;28;19917;-31
2022/05/13 04:35:09;;;;;;;;;;;;;;;;;;4995060;28;19914;-30
2022/05/13 04:37:37;;;;;;;;;;;;;;;;;;4995497;28;19971;-31
2022/05/13 04:40:03;;;;;;;;;;;;;;;;;;4995175;28;20346;-31
2022/05/13 04:45:13;;;;;;;;;;;;;;;;;;4995117;28;19956;-31
2022/05/13 04:50:24;;;;;;;;;;;;;;;;;;4995193;28;20001;-31
2022/05/13 04:52:50;;;;;;;;;;;;;;;;;;4995111;28;20227;-31
2022/05/13 04:55:16;;;;;;;;;;;;;;;;;;4994803;28;19971;-31
2022/05/13 04:57:42;;;;;;;;;;;;;;;;;;4995202;28;20338;-31
2022/05/13 05:00:08;;;;;;;;;;;;;;;;;;4995150;28;19905;-31
2022/05/13 05:02:34;;;;;;;;;;;;;;;;;;4995101;28;19910;-31
2022/05/13 05:05:00;;;;;;;;;;;;;;;;;;4994617;28;19928;-31
2022/05/13 05:07:26;;;;;;;;;;;;;;;;;;4995086;28;19916;-31
2022/05/13 05:09:52;;;;;;;;;;;;;;;;;;4995159;28;19913;-31
2022/05/13 05:12:18;;;;;;;;;;;;;;;;;;4994734;28;19928;-31
2022/05/13 05:14:44;;;;;;;;;;;;;;;;;;4997936;28;19913;-31
2022/05/13 05:17:10;;;;;;;;;;;;;;;;;;4998330;28;20254;-31
2022/05/13 05:19:36;;;;;;;;;;;;;;;;;;4998088;28;19953;-30
2022/05/13 05:22:02;;;;;;;;;;;;;;;;;;4998027;28;20311;-30
2022/05/13 05:24:28;;;;;;;;;;;;;;;;;;4997973;28;19910;-30
2022/05/13 05:26:54;;;;;;;;;;;;;;;;;;4998390;28;19906;-32
2022/05/13 05:29:20;;;;;;;;;;;;;;;;;;4998009;28;20218;-32
2022/05/13 05:31:46;;;;;;;;;;;;;;;;;;4997857;28;19917;-32
2022/05/13 05:34:13;;;;;;;;;;;;;;;;;;4980733;28;20003;-32
2022/05/13 05:36:39;;;;;;;;;;;;;;;;;;4997816;28;19917;-31
2022/05/13 05:39:05;;;;;;;;;;;;;;;;;;4998081;28;19964;-31
2022/05/13 05:41:31;;;;;;;;;;;;;;;;;;4997763;28;19920;-32
2022/05/13 05:43:57;;;;;;;;;;;;;;;;;;4997769;28;19906;-31
2022/05/13 05:46:23;;;;;;;;;;;;;;;;;;4980644;28;19905;-32
2022/05/13 05:48:49;;;;;;;;;;;;;;;;;;4997718;28;20013;-31
2022/05/13 05:51:15;;;;;;;;;;;;;;;;;;4998156;28;20306;-31
2022/05/13 05:59:10;;;;;;;;;;;;;;;;;;4997839;28;19923;-31
2022/05/13 06:01:36;;;;;;;;;;;;;;;;;;4997706;28;20291;-31
2022/05/13 06:04:02;;;;;;;;;;;;;;;;;;4976632;28;19985;-32
2022/05/13 06:06:28;;;;;;;;;;;;;;;;;;4978688;28;19917;-31
2022/05/13 06:08:55;;;;;;;;;;;;;;;;;;4977868;28;20008;-31
2022/05/13 06:11:23;;;;;;;;;;;;;;;;;;4978058;28;19937;-31
2022/05/13 06:13:49;;;;;;;;;;;;;;;;;;4977881;28;19949;-32
2022/05/13 06:16:15;;;;;;;;;;;;;;;;;;4977837;28;20314;-31
2022/05/13 06:18:41;;;;;;;;;;;;;;;;;;4978029;28;19910;-31
2022/05/13 06:21:07;;;;;;;;;;;;;;;;;;4977681;28;19914;-32
2022/05/13 06:23:35;;;;;;;;;;;;;;;;;;4977595;28;19910;-31
2022/05/13 06:26:01;;;;;;;;;;;;;;;;;;4977328;28;19921;-32
2022/05/13 06:28:27;;;;;;;;;;;;;;;;;;4978426;28;19905;-31
2022/05/13 06:30:53;;;;;;;;;;;;;;;;;;4977538;28;20005;-31
2022/05/13 06:33:19;;;;;;;;;;;;;;;;;;4977480;28;20045;-31
2022/05/13 06:35:45;;;;;;;;;;;;;;;;;;4977630;28;19910;-31
2022/05/13 06:38:13;;;;;;;;;;;;;;;;;;4977330;28;19973;-32
2022/05/13 06:40:39;;;;;;;;;;;;;;;;;;4977168;28;19914;-32
2022/05/13 06:43:05;;;;;;;;;;;;;;;;;;4977189;28;20247;-31
2022/05/13 06:45:31;;;;;;;;;;;;;;;;;;4977156;28;19910;-31
2022/05/13 06:47:57;;;;;;;;;;;;;;;;;;4977052;28;20291;-31
2022/05/13 06:50:23;;;;;;;;;;;;;;;;;;4977854;28;19942;-31
2022/05/13 06:52:49;;;;;;;;;;;;;;;;;;4976874;28;20006;-32
2022/05/13 06:55:15;;;;;;;;;;;;;;;;;;4976884;28;19917;-31
2022/05/13 06:57:41;;;;;;;;;;;;;;;;;;4976957;28;19909;-31
2022/05/13 07:00:07;;;;;;;;;;;;;;;;;;4976852;28;19906;-31
2022/05/13 07:02:33;;;;;;;;;;;;;;;;;;4976769;28;19918;-31
2022/05/13 07:04:59;;;;;;;;;;;;;;;;;;4994634;28;19922;-31
2022/05/13 07:07:27;;;;;;;;;;;;;;;;;;4996203;28;19906;-31
2022/05/13 07:09:53;;;;;;;;;;;;;;;;;;4996123;28;20012;-31
2022/05/13 07:12:19;;;;;;;;;;;;;;;;;;4996309;28;20267;-31
2022/05/13 07:14:45;;;;;;;;;;;;;;;;;;4996063;28;19921;-31
2022/05/13 07:17:11;;;;;;;;;;;;;;;;;;4978865;28;20405;-31
2022/05/13 07:19:37;;;;;;;;;;;;;;;;;;4996339;28;19905;-31
2022/05/13 07:22:03;;;;;;;;;;;;;;;;;;4995812;28;19909;-31
2022/05/13 07:24:29;;;;;;;;;;;;;;;;;;4995733;28;20270;-31
2022/05/13 07:26:55;;;;;;;;;;;;;;;;;;4995978;28;19929;-31
2022/05/13 07:29:21;;;;;;;;;;;;;;;;;;4996235;28;20294;-32
2022/05/13 07:31:48;;;;;;;;;;;;;;;;;;4996069;28;19909;-31
2022/05/13 07:34:14;;;;;;;;;;;;;;;;;;4995992;28;19906;-32
2022/05/13 07:36:40;;;;;;;;;;;;;;;;;;4995256;28;19918;-32
2022/05/13 07:41:50;;;;;;;;;;;;;;;;;;4995674;28;19963;-32
2022/05/13 07:44:16;;;;;;;;;;;;;;;;;;4995600;28;19910;-32
2022/05/13 07:46:44;;;;;;;;;;;;;;;;;;4995924;28;19916;-30
2022/05/13 07:49:10;;;;;;;;;;;;;;;;;;4995592;28;19972;-29
2022/05/13 07:51:36;;;;;;;;;;;;;;;;;;4995480;28;19909;-30
2022/05/13 07:54:02;;;;;;;;;;;;;;;;;;4995558;28;19916;-29
2022/05/13 07:56:28;;;;;;;;;;;;;;;;;;4995667;28;20246;-32
2022/05/13 07:58:57;;;;;;;;;;;;;;;;;;4995651;28;19905;-32
2022/05/13 08:01:23;;;;;;;;;;;;;;;;;;4996012;28;19918;-32
2022/05/13 08:03:49;;;;;;;;;;;;;;;;;;4995104;28;20251;-32
2022/05/13 08:06:15;;;;;;;;;;;;;;;;;;4995366;28;19909;-32
2022/05/13 08:08:41;;;;;;;;;;;;;;;;;;4995977;28;20306;-32
2022/05/13 08:11:07;;;;;;;;;;;;;;;;;;4995573;28;19971;-32
2022/05/13 08:13:34;;;;;;;;;;;;;;;;;;4995249;28;19906;-32
2022/05/13 08:16:00;;;;;;;;;;;;;;;;;;4995994;28;19918;-31
2022/05/13 08:18:26;;;;;;;;;;;;;;;;;;4995248;28;19910;-31
2022/05/13 08:20:52;;;;;;;;;;;;;;;;;;4995380;28;19905;-31
2022/05/13 08:23:18;;;;;;;;;;;;;;;;;;4995705;28;19932;-31
2022/05/13 08:25:47;;;;;;;;;;;;;;;;;;4995276;28;19993;-32
2022/05/13 08:28:13;;;;;;;;;;;;;;;;;;4995195;28;20369;-31
2022/05/13 08:30:39;;;;;;;;;;;;;;;;;;4995245;28;19927;-31
2022/05/13 08:33:08;;;;;;;;;;;;;;;;;;4995099;28;19910;-30
2022/05/13 08:35:34;;;;;;;;;;;;;;;;;;4995378;28;20312;-32
2022/05/13 08:38:00;;;;;;;;;;;;;;;;;;4995246;28;19937;-32
2022/05/13 08:40:26;;;;;;;;;;;;;;;;;;4996106;28;20004;-32
2022/05/13 08:42:52;;;;;;;;;;;;;;;;;;4995564;28;19936;-32
2022/05/13 08:45:18;;;;;;;;;;;;;;;;;;4995267;28;19909;-31
2022/05/13 08:47:44;;;;;;;;;;;;;;;;;;4996661;28;19914;-31
2022/05/13 08:50:10;;;;;;;;;;;;;;;;;;4998818;28;19910;-31
2022/05/13 08:55:21;;;;;;;;;;;;;;;;;;4998832;28;19992;-31
2022/05/13 08:57:47;;;;;;;;;;;;;;;;;;4998697;28;19910;-31
2022/05/13 09:00:13;;;;;;;;;;;;;;;;;;4998687;28;19906;-31
2022/05/13 09:02:39;;;;;;;;;;;;;;;;;;4998593;28;20354;-31
2022/05/13 09:05:05;;;;;;;;;;;;;;;;;;4998528;28;19980;-31
2022/05/13 09:07:31;;;;;;;;;;;;;;;;;;4998572;28;19917;-31
2022/05/13 09:09:57;;;;;;;;;;;;;;;;;;4998499;28;19906;-29
2022/05/13 09:12:23;;;;;;;;;;;;;;;;;;4998866;28;19910;-31
2022/05/13 09:14:49;;;;;;;;;;;;;;;;;;4998670;28;20362;-31
2022/05/13 09:17:15;;;;;;;;;;;;;;;;;;4998936;28;19952;-29
2022/05/13 09:19:41;;;;;;;;;;;;;;;;;;4998396;28;20023;-32
2022/05/13 09:22:07;;;;;;;;;;;;;;;;;;4998190;28;20259;-31
2022/05/13 09:24:33;;;;;;;;;;;;;;;;;;4998207;28;19910;-32
2022/05/13 09:26:59;;;;;;;;;;;;;;;;;;4998167;28;20358;-31
2022/05/13 09:29:26;;;;;;;;;;;;;;;;;;4998119;28;19936;-31
2022/05/13 09:31:52;;;;;;;;;;;;;;;;;;4997892;28;19945;-29
2022/05/13 09:34:18;;;;;;;;;;;;;;;;;;4997985;28;20035;-31
2022/05/13 09:36:43;;;;;;;;;;;;;;;;;;4998123;28;19925;-31
2022/05/13 09:39:09;;;;;;;;;;;;;;;;;;4997855;28;20062;-32
2022/05/13 09:41:35;;;;;;;;;;;;;;;;;;4997748;28;19914;-29
2022/05/13 09:44:01;;;;;;;;;;;;;;;;;;4997640;28;19910;-33
2022/05/13 09:46:27;;;;;;;;;;;;;;;;;;4998827;28;20012;-32
2022/05/13 09:48:53;;;;;;;;;;;;;;;;;;4997768;28;19917;-32
2022/05/13 09:51:19;;;;;;;;;;;;;;;;;;4997722;28;19913;-32
2022/05/13 09:53:45;;;;;;;;;;;;;;;;;;4980322;28;19912;-32
2022/05/13 09:56:11;;;;;;;;;;;;;;;;;;4997606;28;19914;-32
2022/05/13 09:58:37;;;;;;;;;;;;;;;;;;4979793;28;19936;-32
2022/05/13 10:01:03;;;;;;;;;;;;;;;;;;4997289;28;19921;-30
2022/05/13 10:03:29;;;;;;;;;;;;;;;;;;4997188;28;19929;-30
2022/05/13 10:05:56;;;;;;;;;;;;;;;;;;4997328;28;19910;-31
2022/05/13 10:08:22;;;;;;;;;;;;;;;;;;4997947;28;20067;-30
2022/05/13 10:16:17;;;;;;;;;;;;;;;;;;4997146;28;19920;-31
2022/05/13 10:18:43;;;;;;;;;;;;;;;;;;4997090;28;19917;-31
2022/05/13 10:21:09;;;;;;;;;;;;;;;;;;4997127;28;19929;-31
2022/05/13 10:23:36;;;;;;;;;;;;;;;;;;4997131;28;19910;-31
2022/05/13 10:26:02;;;;;;;;;;;;;;;;;;4997454;28;20350;-31
2022/05/13 10:28:28;;;;;;;;;;;;;;;;;;4996878;28;20007;-31
2022/05/13 10:30:54;;;;;;;;;;;;;;;;;;4996996;28;19909;-30
2022/05/13 10:33:20;;;;;;;;;;;;;;;;;;4996898;28;19909;-32
2022/05/13 10:35:46;;;;;;;;;;;;;;;;;;4996850;28;19921;-32
2022/05/13 10:38:12;;;;;;;;;;;;;;;;;;4997088;28;20334;-32
2022/05/13 10:40:38;;;;;;;;;;;;;;;;;;4996836;28;19964;-32
2022/05/13 10:43:04;;;;;;;;;;;;;;;;;;4996658;28;20004;-31
2022/05/13 10:45:31;;;;;;;;;;;;;;;;;;4996742;28;19944;-31
2022/05/13 10:47:57;;;;;;;;;;;;;;;;;;4996695;28;19971;-31
2022/05/13 10:50:23;;;;;;;;;;;;;;;;;;4996593;28;19913;-32
2022/05/13 10:52:49;;;;;;;;;;;;;;;;;;4997006;28;19998;-32
2022/05/13 10:55:15;;;;;;;;;;;;;;;;;;4996461;28;19906;-32
2022/05/13 10:57:41;;;;;;;;;;;;;;;;;;4996426;28;19910;-32
2022/05/13 11:00:09;;;;;;;;;;;;;;;;;;4996582;28;19905;-32
2022/05/13 11:02:35;;;;;;;;;;;;;;;;;;4996042;28;19910;-31
2022/05/13 11:05:01;;;;;;;;;;;;;;;;;;4995953;28;19984;-31
2022/05/13 11:07:27;;;;;;;;;;;;;;;;;;4996156;28;19910;-31
2022/05/13 11:09:53;;;;;;;;;;;;;;;;;;4996045;28;20258;-31
2022/05/13 11:12:19;;;;;;;;;;;;;;;;;;4996041;28;20339;-32
2022/05/13 11:14:45;;;;;;;;;;;;;;;;;;4996373;28;19906;-31
2022/05/13 11:17:12;;;;;;;;;;;;;;;;;;4995861;28;19913;-31
2022/05/13 11:19:38;;;;;;;;;;;;;;;;;;4996313;28;20286;-31
2022/05/13 11:22:04;;;;;;;;;;;;;;;;;;4995888;28;20406;-31
2022/05/13 11:27:15;;;;;;;;;;;;;;;;;;4995941;28;20365;-31
2022/05/13 11:29:41;;;;;;;;;;;;;;;;;;4996414;28;19988;-32
2022/05/13 11:32:07;;;;;;;;;;;;;;;;;;4996218;28;20000;-31
2022/05/13 11:34:33;;;;;;;;;;;;;;;;;;4995726;28;19976;-31
2022/05/13 11:36:59;;;;;;;;;;;;;;;;;;4995899;28;19914;-31
2022/05/13 11:39:25;;;;;;;;;;;;;;;;;;4995964;28;20227;-32
2022/05/13 11:41:51;;;;;;;;;;;;;;;;;;4995623;28;19917;-31
2022/05/13 11:44:17;;;;;;;;;;;;;;;;;;4995973;28;19905;-31
2022/05/13 11:46:44;;;;;;;;;;;;;;;;;;4996112;28;20000;-32
2022/05/13 11:49:10;;;;;;;;;;;;;;;;;;4995766;28;19910;-31
2022/05/13 11:51:36;;;;;;;;;;;;;;;;;;4996289;28;19910;-31
2022/05/13 11:54:02;;;;;;;;;;;;;;;;;;4978297;28;20295;-31
2022/05/13 11:56:31;;;;;;;;;;;;;;;;;;4995442;28;19923;-31
2022/05/13 11:58:57;;;;;;;;;;;;;;;;;;4996286;28;19937;-31
2022/05/13 12:01:24;;;;;;;;;;;;;;;;;;4995538;28;20006;-31
2022/05/13 12:03:50;;;;;;;;;;;;;;;;;;4995420;28;20281;-31
2022/05/13 12:06:16;;;;;;;;;;;;;;;;;;4995690;28;19952;-31
2022/05/13 12:08:42;;;;;;;;;;;;;;;;;;4995380;28;19916;-31
2022/05/13 12:11:08;;;;;;;;;;;;;;;;;;4995484;28;20000;-31
2022/05/13 12:13:34;;;;;;;;;;;;;;;;;;4995532;28;19921;-31
2022/05/13 12:16:00;;;;;;;;;;;;;;;;;;4995306;28;19916;-31
2022/05/13 12:18:26;;;;;;;;;;;;;;;;;;4995436;28;20343;-31
2022/05/13 12:20:52;;;;;;;;;;;;;;;;;;4995439;28;19917;-32
2022/05/13 12:23:18;;;;;;;;;;;;;;;;;;4997757;28;19910;-31
2022/05/13 12:25:44;;;;;;;;;;;;;;;;;;4999089;28;20258;-32
2022/05/13 12:28:10;;;;;;;;;;;;;;;;;;4999078;28;20010;-31
2022/05/13 12:30:36;;;;;;;;;;;;;;;;;;4999043;28;20009;-32
2022/05/13 12:33:02;;;;;;;;;;;;;;;;;;4999312;28;19913;-32
2022/05/13 12:38:13;;;;;;;;;;;;;;;;;;4999178;28;19916;-32
2022/05/13 12:40:39;;;;;;;;;;;;;;;;;;4999010;28;19996;-31
2022/05/13 12:43:05;;;;;;;;;;;;;;;;;;4981729;28;19976;-31
2022/05/13 12:45:31;;;;;;;;;;;;;;;;;;4999236;28;19912;-32
2022/05/13 12:47:57;;;;;;;;;;;;;;;;;;4998831;28;19909;-31
2022/05/13 12:50:23;;;;;;;;;;;;;;;;;;4998804;28;19961;-32
2022/05/13 12:52:49;;;;;;;;;;;;;;;;;;4998952;28;19910;-31
2022/05/13 12:55:18;;;;;;;;;;;;;;;;;;4998883;28;19906;-31
2022/05/13 12:57:44;;;;;;;;;;;;;;;;;;4998504;28;20023;-32
2022/05/13 13:00:10;;;;;;;;;;;;;;;;;;4998572;28;19910;-31
2022/05/13 13:02:36;;;;;;;;;;;;;;;;;;4999025;28;19932;-31
2022/05/13 13:05:02;;;;;;;;;;;;;;;;;;4998362;28;19918;-32
2022/05/13 13:07:28;;;;;;;;;;;;;;;;;;4998477;28;19932;-32
2022/05/13 13:09:54;;;;;;;;;;;;;;;;;;4998266;28;19911;-32
2022/05/13 13:12:20;;;;;;;;;;;;;;;;;;4998183;28;19924;-32
2022/05/13 13:14:46;;;;;;;;;;;;;;;;;;4998260;28;19913;-32
2022/05/13 13:17:19;;;;;;;;;;;;;;;;;;4998455;28;19914;-31
2022/05/13 13:19:45;;;;;;;;;;;;;;;;;;4998547;28;19910;-31
2022/05/13 13:22:14;;;;;;;;;;;;;;;;;;4998393;28;20314;-32
2022/05/13 13:24:40;;;;;;;;;;;;;;;;;;4998281;28;19941;-32
2022/05/13 13:27:06;;;;;;;;;;;;;;;;;;4998947;28;19937;-31
2022/05/13 13:29:32;;;;;;;;;;;;;;;;;;4998239;28;19916;-31
2022/05/13 13:31:58;;;;;;;;;;;;;;;;;;4998045;28;20355;-32
2022/05/13 13:34:24;;;;;;;;;;;;;;;;;;4997379;28;20282;-32
2022/05/13 13:36:50;;;;;;;;;;;;;;;;;;4998013;28;19910;-32
2022/05/13 13:39:16;;;;;;;;;;;;;;;;;;4998325;28;19964;-31
2022/05/13 13:41:44;;;;;;;;;;;;;;;;;;4998059;28;19916;-32
2022/05/13 13:44:10;;;;;;;;;;;;;;;;;;4997671;28;19913;-31
2022/05/13 13:46:36;;;;;;;;;;;;;;;;;;4997747;28;19916;-32
2022/05/13 13:49:02;;;;;;;;;;;;;;;;;;4997720;28;19920;-32
2022/05/13 13:51:28;;;;;;;;;;;;;;;;;;4997984;28;19906;-32
2022/05/13 13:53:54;;;;;;;;;;;;;;;;;;4997770;28;20220;-32
2022/05/13 13:56:20;;;;;;;;;;;;;;;;;;4998043;28;20301;-30
2022/05/13 13:58:46;;;;;;;;;;;;;;;;;;4997564;28;19944;-30
2022/05/13 14:01:14;;;;;;;;;;;;;;;;;;4997319;28;20373;-30
2022/05/13 14:03:40;;;;;;;;;;;;;;;;;;4997324;28;20034;-30
2022/05/13 14:06:06;;;;;;;;;;;;;;;;;;4997776;28;19909;-30
2022/05/13 14:08:32;;;;;;;;;;;;;;;;;;4997713;28;19918;-31
2022/05/13 14:10:58;;;;;;;;;;;;;;;;;;4997679;28;19910;-30
2022/05/13 14:13:24;;;;;;;;;;;;;;;;;;4997330;28;20009;-30
2022/05/13 14:15:50;;;;;;;;;;;;;;;;;;4997188;28;20343;-29
2022/05/13 14:18:16;;;;;;;;;;;;;;;;;;4997212;28;19921;-29
2022/05/13 14:20:42;;;;;;;;;;;;;;;;;;4997072;28;19909;-30
2022/05/13 14:23:10;;;;;;;;;;;;;;;;;;4997034;28;20251;-30
2022/05/13 14:25:36;;;;;;;;;;;;;;;;;;4997054;28;19967;-30
2022/05/13 14:28:02;;;;;;;;;;;;;;;;;;4997215;28;19905;-30
2022/05/13 14:30:28;;;;;;;;;;;;;;;;;;4996916;28;19920;-30
2022/05/13 14:32:54;;;;;;;;;;;;;;;;;;4997299;28;19906;-30
2022/05/13 14:35:20;;;;;;;;;;;;;;;;;;4997109;28;19944;-30
2022/05/13 14:37:46;;;;;;;;;;;;;;;;;;4997010;28;19999;-29
2022/05/13 14:40:12;;;;;;;;;;;;;;;;;;4997318;28;20314;-30
2022/05/13 14:42:39;;;;;;;;;;;;;;;;;;4996607;28;19945;-29
2022/05/13 14:45:06;;;;;;;;;;;;;;;;;;4996279;28;20071;-29
2022/05/13 14:47:32;;;;;;;;;;;;;;;;;;4996498;28;20330;-29
2022/05/13 14:49:58;;;;;;;;;;;;;;;;;;4996834;28;19917;-29
2022/05/13 14:52:24;;;;;;;;;;;;;;;;;;4996392;28;19917;-29
2022/05/13 14:54:51;;;;;;;;;;;;;;;;;;4996672;28;20262;-30
2022/05/13 14:57:17;;;;;;;;;;;;;;;;;;4996600;28;20255;-29
2022/05/13 14:59:43;;;;;;;;;;;;;;;;;;4996264;28;19917;-30
2022/05/13 15:02:09;;;;;;;;;;;;;;;;;;4996255;28;19910;-30
2022/05/13 15:04:36;;;;;;;;;;;;;;;;;;4996124;28;19925;-30
2022/05/13 15:07:02;;;;;;;;;;;;;;;;;;4979070;28;19921;-30
2022/05/13 15:09:28;;;;;;;;;;;;;;;;;;4996215;28;19905;-30
2022/05/13 15:11:56;;;;;;;;;;;;;;;;;;4996211;28;19996;-30
2022/05/13 15:14:21;;;;;;;;;;;;;;;;;;4979082;28;19938;-31
2022/05/13 15:16:48;;;;;;;;;;;;;;;;;;4996141;28;20011;-30
2022/05/13 15:19:24;;;;;;;;;;;;;;;;;;4996061;28;19909;-30
2022/05/13 15:21:51;;;;;;;;;;;;;;;;;;4995991;28;19906;-31
2022/05/13 15:24:16;;;;;;;;;;;;;;;;;;4995889;28;20314;-30
2022/05/13 15:26:42;;;;;;;;;;;;;;;;;;4996139;28;19906;-30
2022/05/13 15:29:08;;;;;;;;;;;;;;;;;;4995799;28;20446;-30
2022/05/13 15:31:34;;;;;;;;;;;;;;;;;;4995837;28;19922;-30
2022/05/13 15:34:00;;;;;;;;;;;;;;;;;;4995658;28;19917;-31
2022/05/13 15:36:26;;;;;;;;;;;;;;;;;;4995705;28;20401;-31
2022/05/13 15:38:52;;;;;;;;;;;;;;;;;;4995751;28;19947;-31
2022/05/13 15:41:18;;;;;;;;;;;;;;;;;;4995759;28;20012;-31
2022/05/13 15:43:45;;;;;;;;;;;;;;;;;;4995497;28;20377;-31
2022/05/13 15:46:11;;;;;;;;;;;;;;;;;;4996288;28;19910;-31
2022/05/13 15:48:37;;;;;;;;;;;;;;;;;;4995676;28;20354;-31
2022/05/13 15:53:47;;;;;;;;;;;;;;;;;;4995529;28;20121;-30
2022/05/13 15:56:13;;;;;;;;;;;;;;;;;;4995563;28;19924;-31
2022/05/13 15:58:41;;;;;;;;;;;;;;;;;;4995218;28;20274;-30
2022/05/13 16:01:07;;;;;;;;;;;;;;;;;;4995485;28;19909;-30
2022/05/13 16:03:33;;;;;;;;;;;;;;;;;;4995358;28;19924;-31
2022/05/13 16:05:59;;;;;;;;;;;;;;;;;;4995952;28;19913;-31
2022/05/13 16:08:25;;;;;;;;;;;;;;;;;;4995468;28;19910;-31
2022/05/13 16:10:51;;;;;;;;;;;;;;;;;;4995607;28;19910;-31
2022/05/13 16:13:17;;;;;;;;;;;;;;;;;;4995237;28;19968;-31
2022/05/13 16:15:43;;;;;;;;;;;;;;;;;;4995107;28;19940;-30
2022/05/13 16:18:10;;;;;;;;;;;;;;;;;;4995239;28;20007;-30
2022/05/13 16:20:36;;;;;;;;;;;;;;;;;;4995284;28;19949;-30
2022/05/13 16:23:02;;;;;;;;;;;;;;;;;;4995498;28;19917;-31
2022/05/13 16:25:28;;;;;;;;;;;;;;;;;;4995365;28;20370;-31
2022/05/13 16:27:56;;;;;;;;;;;;;;;;;;4995234;28;20262;-31
2022/05/13 16:30:22;;;;;;;;;;;;;;;;;;4995096;28;19932;-31
2022/05/13 16:32:48;;;;;;;;;;;;;;;;;;4995395;28;19910;-30
2022/05/13 16:35:14;;;;;;;;;;;;;;;;;;4994984;28;19957;-31
2022/05/13 16:37:43;;;;;;;;;;;;;;;;;;4977920;28;20286;-30
2022/05/13 16:40:09;;;;;;;;;;;;;;;;;;4995027;28;20431;-31
2022/05/13 16:42:35;;;;;;;;;;;;;;;;;;4977700;28;20350;-31
2022/05/13 16:45:01;;;;;;;;;;;;;;;;;;4995038;28;19913;-31
2022/05/13 16:47:27;;;;;;;;;;;;;;;;;;4995254;28;19980;-30
2022/05/13 16:49:53;;;;;;;;;;;;;;;;;;4995035;28;19906;-31
2022/05/13 16:52:19;;;;;;;;;;;;;;;;;;4995240;28;19949;-31
2022/05/13 16:54:45;;;;;;;;;;;;;;;;;;4994989;28;20263;-31
2022/05/13 16:57:11;;;;;;;;;;;;;;;;;;4994820;28;19913;-30
2022/05/13 16:59:38;;;;;;;;;;;;;;;;;;4994972;28;19944;-30
2022/05/13 17:02:04;;;;;;;;;;;;;;;;;;4994869;28;19921;-31
2022/05/13 17:04:30;;;;;;;;;;;;;;;;;;4994913;28;19918;-31
2022/05/13 17:06:56;;;;;;;;;;;;;;;;;;4994856;28;19943;-31
2022/05/13 17:17:36;;;;;;;;;;;;;;;;;;4998391;28;20033;-31
2022/05/13 17:20:02;;;;;;;;;;;;;;;;;;4998550;28;19929;-31
2022/05/13 17:22:28;;;;;;;;;;;;;;;;;;4998323;28;19910;-31
2022/05/13 17:24:54;;;;;;;;;;;;;;;;;;4980912;28;20255;-31
2022/05/13 17:27:20;;;;;;;;;;;;;;;;;;4998343;28;20358;-30
2022/05/13 17:29:46;;;;;;;;;;;;;;;;;;4998166;28;19909;-31